createdAt,value
2023-03-18T05:02:08.582Z,99215.13
2023-03-18T05:06:21.642Z,99218.47
2023-03-18T05:10:30.441Z,99221.16
2023-03-18T05:14:33.112Z,99214.06
2023-03-18T05:18:38.973Z,99215.69
2023-03-18T05:22:42.861Z,99205.53
2023-03-18T05:26:52.126Z,99209.97
2023-03-18T05:30:58.598Z,99218.47
2023-03-18T05:35:05.793Z,99214.31
2023-03-18T05:39:16.154Z,99202.47
2023-03-18T05:43:19.061Z,99208.09
2023-03-18T05:47:28.645Z,99213.69
2023-03-18T05:51:41.780Z,99217.63
2023-03-18T05:55:48.672Z,99224.84
2023-03-18T05:59:52.681Z,99219.06
2023-03-18T06:03:55.621Z,99221.31
2023-03-18T06:08:01.308Z,99216.72
2023-03-18T06:12:05.417Z,99228.97
2023-03-18T06:16:08.719Z,99225.63
2023-03-18T06:20:14.210Z,99227.06
2023-03-18T06:24:18.143Z,99237.25
2023-03-18T06:28:20.780Z,99230.75
2023-03-18T06:32:23.639Z,99239.00
2023-03-18T06:36:26.760Z,99241.06
2023-03-18T06:40:31.595Z,99234.06
2023-03-18T06:44:35.360Z,99236.47
2023-03-18T06:48:48.835Z,99252.13
2023-03-18T06:52:57.816Z,99262.38
2023-03-18T06:57:06.366Z,99260.72
2023-03-18T07:01:09.343Z,99260.53
2023-03-18T07:05:17.128Z,99278.91
2023-03-18T07:09:19.867Z,99279.75
2023-03-18T07:13:29.508Z,99278.25
2023-03-18T07:17:32.635Z,99285.34
2023-03-18T07:21:35.769Z,99296.94
2023-03-18T07:25:38.738Z,99290.69
2023-03-18T07:29:42.770Z,99308.13
2023-03-18T07:33:46.299Z,99304.59
2023-03-18T07:37:48.833Z,99304.97
2023-03-18T07:41:51.591Z,99317.88
2023-03-18T07:45:59.703Z,99312.66
2023-03-18T07:50:02.585Z,99320.66
2023-03-18T07:54:05.526Z,99310.78
2023-03-18T07:58:09.470Z,99320.44
2023-03-18T08:02:15.822Z,99322.00
2023-03-18T08:06:20.575Z,99323.94
2023-03-18T08:10:24.010Z,99334.34
2023-03-18T08:14:26.521Z,99328.47
2023-03-18T08:18:30.433Z,99334.09
2023-03-18T08:22:33.244Z,99341.66
2023-03-18T08:26:36.301Z,99352.06
2023-03-18T08:30:40.317Z,99355.84
2023-03-18T08:34:44.442Z,99349.69
2023-03-18T08:38:46.921Z,99347.47
2023-03-18T08:42:49.405Z,99345.63
2023-03-18T08:46:51.874Z,99354.72
2023-03-18T08:50:55.868Z,99356.97
2023-03-18T08:54:58.342Z,99354.97
2023-03-18T08:59:00.995Z,99346.56
2023-03-18T09:03:03.576Z,99356.28
2023-03-18T09:07:07.455Z,99357.63
2023-03-18T09:11:10.812Z,99359.41
2023-03-18T09:15:15.913Z,99350.69
2023-03-18T09:19:18.416Z,99353.72
2023-03-18T09:23:22.490Z,99353.28
2023-03-18T09:27:25.223Z,99359.09
2023-03-18T09:31:27.861Z,99357.47
2023-03-18T09:35:30.507Z,99356.94
2023-03-18T09:39:34.894Z,99353.81
2023-03-18T09:43:51.647Z,99341.91
2023-03-18T09:48:18.947Z,99361.97
2023-03-18T09:52:25.440Z,99361.59
2023-03-18T09:56:34.486Z,99353.38
2023-03-18T10:00:38.628Z,99357.00
2023-03-18T10:04:45.064Z,99357.13
2023-03-18T10:08:57.053Z,99349.63
2023-03-18T10:13:12.584Z,99343.72
2023-03-18T10:17:20.632Z,99344.00
2023-03-18T10:21:36.389Z,99352.19
2023-03-18T10:25:44.259Z,99360.22
2023-03-18T10:29:53.387Z,99363.38
2023-03-18T10:34:00.080Z,99364.94
2023-03-18T10:38:05.569Z,99371.94
2023-03-18T10:42:20.527Z,99366.41
2023-03-18T10:46:26.850Z,99368.94
2023-03-18T10:50:36.702Z,99374.00
2023-03-18T10:54:42.476Z,99379.75
2023-03-18T10:58:44.984Z,99368.66
2023-03-18T11:02:49.734Z,99375.63
2023-03-18T11:06:57.747Z,99376.75
2023-03-18T11:11:14.757Z,99373.88
2023-03-18T11:15:20.860Z,99370.28
2023-03-18T11:19:32.488Z,99373.84
2023-03-18T11:23:48.945Z,99375.66
2023-03-18T11:27:53.680Z,99373.13
2023-03-18T11:31:58.593Z,99374.63
2023-03-18T11:36:07.864Z,99374.59
2023-03-18T11:40:19.231Z,99363.97
2023-03-18T11:44:28.469Z,99377.03
2023-03-18T11:48:36.568Z,99370.84
2023-03-18T11:52:48.575Z,99370.63
2023-03-18T11:56:58.086Z,99368.06
2023-03-18T12:01:07.716Z,99368.38
2023-03-18T12:05:32.537Z,99372.50
2023-03-18T12:09:44.781Z,99363.28
2023-03-18T12:14:01.004Z,99342.72
2023-03-18T12:18:12.849Z,99357.66
2023-03-18T12:22:30.009Z,99363.22
2023-03-18T12:26:40.869Z,99352.50
2023-03-18T12:31:15.414Z,99354.41
2023-03-18T12:35:37.185Z,99355.59
2023-03-18T12:40:01.468Z,99353.88
2023-03-18T12:44:26.198Z,99350.06
2023-03-18T12:48:43.755Z,99346.13
2023-03-18T12:52:51.519Z,99345.31
2023-03-18T12:57:01.048Z,99338.53
2023-03-18T13:01:10.450Z,99349.34
2023-03-18T13:05:29.299Z,99346.19
2023-03-18T13:09:39.498Z,99342.66
2023-03-18T13:13:46.587Z,99345.56
2023-03-18T13:17:55.123Z,99346.75
2023-03-18T13:22:08.322Z,99342.97
2023-03-18T13:26:22.206Z,99344.53
2023-03-18T13:30:36.755Z,99339.91
2023-03-18T13:34:57.729Z,99348.06
2023-03-18T13:39:24.601Z,99352.38
2023-03-18T13:43:28.663Z,99343.31
2023-03-18T13:47:34.700Z,99358.50
2023-03-18T13:51:58.039Z,99348.19
2023-03-18T13:56:03.828Z,99336.56
2023-03-18T14:00:25.275Z,99341.22
2023-03-18T14:04:32.078Z,99341.81
2023-03-18T14:08:48.228Z,99340.19
2023-03-18T14:12:50.997Z,99330.91
2023-03-18T14:16:53.974Z,99327.13
2023-03-18T14:21:01.866Z,99331.19
2023-03-18T14:25:37.535Z,99328.22
2023-03-18T14:29:41.715Z,99326.28
2023-03-18T14:34:04.034Z,99333.13
2023-03-18T14:38:13.687Z,99331.22
2023-03-18T14:42:28.772Z,99328.19
2023-03-18T14:46:35.476Z,99336.97
2023-03-18T14:50:43.102Z,99330.28
2023-03-18T14:54:46.191Z,99316.91
2023-03-18T14:58:53.339Z,99313.00
2023-03-18T15:03:01.644Z,99316.31
2023-03-18T15:07:08.062Z,99308.41
2023-03-18T15:11:13.221Z,99309.28
2023-03-18T15:15:18.630Z,99306.84
2023-03-18T15:19:22.382Z,99307.13
2023-03-18T15:23:31.625Z,99303.84
2023-03-18T15:27:37.365Z,99310.63
2023-03-18T15:31:45.613Z,99312.41
2023-03-18T15:35:55.460Z,99312.25
2023-03-18T15:39:58.913Z,99307.00
2023-03-18T15:44:01.510Z,99311.28
2023-03-18T15:48:09.196Z,99314.75
2023-03-18T15:52:17.234Z,99314.22
2023-03-18T15:56:24.907Z,99304.63
2023-03-18T16:00:28.625Z,99311.50
2023-03-18T16:04:35.388Z,99301.59
2023-03-18T16:08:37.963Z,99301.59
2023-03-18T16:12:40.994Z,99294.25
2023-03-18T16:16:43.662Z,99294.88
2023-03-18T16:20:48.609Z,99304.88
2023-03-18T16:24:51.476Z,99294.84
2023-03-18T16:28:53.972Z,99303.72
2023-03-18T16:32:57.422Z,99310.34
2023-03-18T16:37:01.696Z,99313.69
2023-03-18T16:41:05.115Z,99318.28
2023-03-18T16:45:13.836Z,99319.13
2023-03-18T16:49:18.988Z,99322.44
2023-03-18T16:53:26.109Z,99324.38
2023-03-18T16:57:28.939Z,99324.56
2023-03-18T17:01:32.143Z,99320.56
2023-03-18T17:05:35.145Z,99333.53
2023-03-18T17:09:38.982Z,99337.84
2023-03-18T17:13:41.371Z,99340.50
2023-03-18T17:17:44.829Z,99339.13
2023-03-18T17:21:48.202Z,99344.91
2023-03-18T17:25:54.887Z,99348.66
2023-03-18T17:29:57.384Z,99357.38
2023-03-18T17:33:59.877Z,99343.31
2023-03-18T17:38:02.456Z,99348.28
2023-03-18T17:42:06.733Z,99363.25
2023-03-18T17:46:09.718Z,99361.34
2023-03-18T17:50:14.826Z,99364.63
2023-03-18T17:54:21.232Z,99362.84
2023-03-18T17:58:27.431Z,99373.28
2023-03-18T18:02:30.815Z,99371.56
2023-03-18T18:06:33.900Z,99373.78
2023-03-18T18:10:36.430Z,99370.41
2023-03-18T18:14:40.500Z,99378.47
2023-03-18T18:18:43.247Z,99369.88
2023-03-18T18:22:48.313Z,99369.50
2023-03-18T18:26:51.264Z,99378.34
2023-03-18T18:30:55.113Z,99381.28
2023-03-18T18:34:57.935Z,99376.66
2023-03-18T18:39:01.005Z,99387.31
2023-03-18T18:43:03.626Z,99383.03
2023-03-18T18:47:18.791Z,99378.97
2023-03-18T18:51:23.497Z,99386.13
2023-03-18T18:55:26.277Z,99385.75
2023-03-18T18:59:32.090Z,99388.69
2023-03-18T19:03:35.988Z,99387.00
2023-03-18T19:07:39.496Z,99386.03
2023-03-18T19:11:42.084Z,99391.16
2023-03-18T19:15:46.670Z,99379.75
2023-03-18T19:19:52.624Z,99380.28
2023-03-18T19:23:55.410Z,99378.63
2023-03-18T19:27:58.107Z,99389.69
2023-03-18T19:32:01.276Z,99382.50
2023-03-18T19:36:08.227Z,99388.81
2023-03-18T19:40:22.156Z,99393.41
2023-03-18T19:44:27.282Z,99390.75
2023-03-18T19:48:29.835Z,99388.78
2023-03-18T19:52:33.756Z,99398.00
2023-03-18T19:56:36.458Z,99390.28
2023-03-18T20:00:39.265Z,99395.91
2023-03-18T20:04:41.945Z,99394.06
2023-03-18T20:08:45.902Z,99396.78
2023-03-18T20:12:50.324Z,99409.22
2023-03-18T20:16:54.688Z,99405.88
2023-03-18T20:20:57.376Z,99397.59
2023-03-18T20:25:01.660Z,99402.59
2023-03-18T20:29:15.763Z,99404.41
2023-03-18T20:33:18.396Z,99407.50
2023-03-18T20:37:25.975Z,99412.50
2023-03-18T20:41:32.447Z,99403.63
2023-03-18T20:45:35.386Z,99401.94
2023-03-18T20:49:40.387Z,99408.56
2023-03-18T20:53:43.243Z,99418.53
2023-03-18T20:57:47.365Z,99420.41
2023-03-18T21:01:51.007Z,99425.63
2023-03-18T21:05:56.061Z,99425.16
2023-03-18T21:09:58.670Z,99403.53
2023-03-18T21:14:04.400Z,99419.06
2023-03-18T21:18:06.934Z,99415.78
2023-03-18T21:22:11.323Z,99418.31
2023-03-18T21:26:13.826Z,99421.63
2023-03-18T21:30:19.174Z,99422.22
2023-03-18T21:34:22.731Z,99432.19
2023-03-18T21:38:25.803Z,99436.53
2023-03-18T21:42:30.490Z,99431.75
2023-03-18T21:46:34.527Z,99431.78
2023-03-18T21:50:37.505Z,99443.38
2023-03-18T21:54:40.329Z,99459.63
2023-03-18T21:58:42.865Z,99464.44
